RYR51AD LEPA-EDDK
Flight info
| Callsign | RYR51AD |
|---|---|
| Flight time | 1h 57m |
| Altitude | 36000 |
| Route | MEROS N853 LUMAS DCT MAXIR DCT LUSOL DCT BODRU DCT OKTET DCT IRMAR DCT KINES DCT VANAS DCT MOBLO DCT UBIMA DCT GILIR DCT PENDU DCT IXILU DCT EPL DCT JARNY DCT ROUSY/N0443F370 M624 DIK N853 ARCKY T853 IBESA T860 ERUKI |
| Aircraft | A320/M-SDE3FGHIRWY/LB1 |
Departure
| Time | 2026-04-25 10:59 |
|---|---|
| Airport | Palma de Mallorca Airport (LEPA) |
Arrival
| Time | 2026-04-25 12:56 |
|---|---|
| Airport | Cologne Bonn Airport (EDDK) |
| Time | Latitude | Longitude | Altitude | Speed | Heading |
|---|---|---|---|---|---|
| 2026-04-25 10:45 | 39.54873 | 2.73541 | 30 ft | 0 kts | 47° |
| 2026-04-25 10:52 | 39.54870 | 2.73537 | 30 ft | 3 kts | 47° |
| 2026-04-25 10:52 | 39.54851 | 2.73511 | 30 ft | 4 kts | 43° |
| 2026-04-25 10:53 | 39.54831 | 2.73493 | 30 ft | 4 kts | 0° |
| 2026-04-25 10:53 | 39.54811 | 2.73502 | 30 ft | 4 kts | 330° |
| 2026-04-25 10:53 | 39.54790 | 2.73516 | 30 ft | 4 kts | 9° |
| 2026-04-25 10:53 | 39.54777 | 2.73503 | 30 ft | 4 kts | 49° |
| 2026-04-25 10:54 | 39.54761 | 2.73475 | 30 ft | 4 kts | 67° |
| 2026-04-25 10:54 | 39.54757 | 2.73456 | 30 ft | 4 kts | 109° |
| 2026-04-25 10:54 | 39.54755 | 2.73451 | 30 ft | 4 kts | 148° |
| 2026-04-25 10:54 | 39.54735 | 2.73468 | 30 ft | 1 kts | 150° |
| 2026-04-25 10:56 | 39.54730 | 2.73472 | 30 ft | 5 kts | 150° |
| 2026-04-25 10:57 | 39.54678 | 2.73512 | 30 ft | 8 kts | 148° |
| 2026-04-25 10:57 | 39.54633 | 2.73553 | 30 ft | 9 kts | 132° |
| 2026-04-25 10:57 | 39.54591 | 2.73643 | 30 ft | 12 kts | 146° |
| 2026-04-25 10:57 | 39.54523 | 2.73696 | 30 ft | 10 kts | 150° |
| 2026-04-25 10:58 | 39.54462 | 2.73745 | 30 ft | 14 kts | 148° |
| 2026-04-25 10:58 | 39.54446 | 2.73845 | 30 ft | 13 kts | 59° |
| 2026-04-25 10:58 | 39.54556 | 2.74080 | 30 ft | 66 kts | 58° |
| 2026-04-25 10:58 | 39.54930 | 2.74866 | 30 ft | 135 kts | 58° |
| 2026-04-25 10:59 | 39.55494 | 2.76061 | 278 ft | 163 kts | 58° |
| 2026-04-25 10:59 | 39.56071 | 2.77312 | 998 ft | 158 kts | 60° |
| 2026-04-25 10:59 | 39.56615 | 2.78509 | 1711 ft | 151 kts | 62° |
| 2026-04-25 10:59 | 39.57143 | 2.79670 | 2352 ft | 144 kts | 61° |
| 2026-04-25 11:00 | 39.57623 | 2.80720 | 3133 ft | 122 kts | 59° |
| 2026-04-25 11:00 | 39.58054 | 2.81691 | 3413 ft | 137 kts | 62° |
| 2026-04-25 11:00 | 39.58529 | 2.82775 | 3722 ft | 133 kts | 61° |
| 2026-04-25 11:00 | 39.58951 | 2.83813 | 4108 ft | 135 kts | 63° |
| 2026-04-25 11:01 | 39.59366 | 2.84933 | 4508 ft | 131 kts | 65° |
| 2026-04-25 11:01 | 39.59724 | 2.86040 | 4696 ft | 145 kts | 66° |
| 2026-04-25 11:01 | 39.60146 | 2.87225 | 5052 ft | 145 kts | 63° |
| 2026-04-25 11:01 | 39.60625 | 2.88385 | 5379 ft | 151 kts | 57° |
| 2026-04-25 11:02 | 39.61254 | 2.89580 | 5531 ft | 170 kts | 55° |
| 2026-04-25 11:02 | 39.61968 | 2.90921 | 5657 ft | 194 kts | 56° |
| 2026-04-25 11:02 | 39.62742 | 2.92471 | 5813 ft | 217 kts | 58° |
| 2026-04-25 11:02 | 39.63568 | 2.94207 | 5949 ft | 239 kts | 59° |
| 2026-04-25 11:03 | 39.64467 | 2.96157 | 6116 ft | 262 kts | 59° |
| 2026-04-25 11:03 | 39.65399 | 2.98230 | 6530 ft | 270 kts | 59° |
| 2026-04-25 11:03 | 39.66341 | 3.00361 | 7344 ft | 273 kts | 60° |
| 2026-04-25 11:03 | 39.67280 | 3.02509 | 8190 ft | 275 kts | 60° |
| 2026-04-25 11:04 | 39.68225 | 3.04684 | 8992 ft | 279 kts | 60° |
| 2026-04-25 11:04 | 39.69185 | 3.06897 | 9770 ft | 283 kts | 60° |
| 2026-04-25 11:04 | 39.70158 | 3.09146 | 10450 ft | 290 kts | 60° |
| 2026-04-25 11:04 | 39.70828 | 3.10701 | 10616 ft | 306 kts | 60° |
| 2026-04-25 11:05 | 39.72285 | 3.14076 | 10947 ft | 333 kts | 60° |
| 2026-04-25 11:05 | 39.73435 | 3.16731 | 11537 ft | 340 kts | 60° |
| 2026-04-25 11:05 | 39.74599 | 3.19427 | 12200 ft | 345 kts | 60° |
| 2026-04-25 11:05 | 39.75774 | 3.22155 | 12941 ft | 347 kts | 60° |
| 2026-04-25 11:06 | 39.76963 | 3.24914 | 13604 ft | 352 kts | 59° |
| 2026-04-25 11:06 | 39.78383 | 3.27516 | 14224 ft | 355 kts | 48° |
| 2026-04-25 11:06 | 39.80008 | 3.29948 | 14825 ft | 358 kts | 48° |
| 2026-04-25 11:06 | 39.81648 | 3.32404 | 15435 ft | 361 kts | 48° |
| 2026-04-25 11:07 | 39.83300 | 3.34883 | 16039 ft | 364 kts | 49° |
| 2026-04-25 11:07 | 39.84965 | 3.37382 | 16630 ft | 367 kts | 49° |
| 2026-04-25 11:07 | 39.86645 | 3.39905 | 17217 ft | 370 kts | 49° |
| 2026-04-25 11:07 | 39.88339 | 3.42455 | 17811 ft | 374 kts | 49° |
| 2026-04-25 11:08 | 39.90047 | 3.45027 | 18397 ft | 377 kts | 49° |
| 2026-04-25 11:08 | 39.91767 | 3.47620 | 18907 ft | 380 kts | 49° |
| 2026-04-25 11:08 | 39.93502 | 3.50237 | 19412 ft | 383 kts | 49° |
| 2026-04-25 11:08 | 39.95249 | 3.52873 | 19924 ft | 386 kts | 49° |
| 2026-04-25 11:09 | 39.97012 | 3.55531 | 20440 ft | 389 kts | 49° |
| 2026-04-25 11:09 | 39.98785 | 3.58212 | 20966 ft | 391 kts | 49° |
| 2026-04-25 11:09 | 40.00566 | 3.60912 | 21487 ft | 394 kts | 49° |
| 2026-04-25 11:09 | 40.02363 | 3.63632 | 21980 ft | 397 kts | 48° |
| 2026-04-25 11:10 | 40.04173 | 3.66373 | 22449 ft | 400 kts | 48° |
| 2026-04-25 11:10 | 40.04788 | 3.67305 | 22609 ft | 401 kts | 48° |
| 2026-04-25 11:10 | 40.07834 | 3.71926 | 23380 ft | 407 kts | 48° |
| 2026-04-25 11:10 | 40.09682 | 3.74738 | 23814 ft | 409 kts | 48° |
| 2026-04-25 11:11 | 40.11542 | 3.77568 | 24187 ft | 412 kts | 48° |
| 2026-04-25 11:11 | 40.13416 | 3.80418 | 24564 ft | 414 kts | 48° |
| 2026-04-25 11:11 | 40.15300 | 3.83280 | 24929 ft | 417 kts | 48° |
| 2026-04-25 11:11 | 40.17194 | 3.86162 | 25286 ft | 419 kts | 48° |
| 2026-04-25 11:12 | 40.19095 | 3.89060 | 25631 ft | 421 kts | 48° |
| 2026-04-25 11:12 | 40.21001 | 3.91976 | 25980 ft | 423 kts | 48° |
| 2026-04-25 11:12 | 40.22913 | 3.94914 | 26322 ft | 425 kts | 49° |
| 2026-04-25 11:12 | 40.24832 | 3.97868 | 26657 ft | 427 kts | 48° |
| 2026-04-25 11:13 | 40.26761 | 4.00835 | 26987 ft | 429 kts | 48° |
| 2026-04-25 11:13 | 40.28705 | 4.03816 | 27307 ft | 431 kts | 48° |
| 2026-04-25 11:13 | 40.30660 | 4.06810 | 27630 ft | 433 kts | 48° |
| 2026-04-25 11:13 | 40.32623 | 4.09818 | 27943 ft | 435 kts | 48° |
| 2026-04-25 11:14 | 40.34595 | 4.12845 | 28254 ft | 437 kts | 49° |
| 2026-04-25 11:14 | 40.36573 | 4.15889 | 28557 ft | 440 kts | 49° |
| 2026-04-25 11:14 | 40.38559 | 4.18949 | 28844 ft | 441 kts | 49° |
| 2026-04-25 11:14 | 40.40550 | 4.22021 | 29164 ft | 442 kts | 48° |
| 2026-04-25 11:15 | 40.42540 | 4.25100 | 29506 ft | 442 kts | 48° |
| 2026-04-25 11:15 | 40.43885 | 4.27183 | 29708 ft | 443 kts | 48° |
| 2026-04-25 11:15 | 40.45856 | 4.30229 | 29973 ft | 445 kts | 47° |
| 2026-04-25 11:15 | 40.48064 | 4.33067 | 30218 ft | 445 kts | 38° |
| 2026-04-25 11:16 | 40.53407 | 4.37096 | 30629 ft | 445 kts | 19° |
| 2026-04-25 11:16 | 40.56390 | 4.38184 | 30823 ft | 446 kts | 10° |
| 2026-04-25 11:16 | 40.59439 | 4.38904 | 31095 ft | 445 kts | 10° |
| 2026-04-25 11:17 | 40.62482 | 4.39626 | 31369 ft | 444 kts | 10° |
| 2026-04-25 11:17 | 40.65519 | 4.40352 | 31645 ft | 443 kts | 10° |
| 2026-04-25 11:17 | 40.68553 | 4.41082 | 31919 ft | 443 kts | 10° |
| 2026-04-25 11:17 | 40.71584 | 4.41814 | 32190 ft | 442 kts | 10° |
| 2026-04-25 11:18 | 40.74608 | 4.42543 | 32466 ft | 442 kts | 10° |
| 2026-04-25 11:18 | 40.77631 | 4.43271 | 32739 ft | 441 kts | 10° |
| 2026-04-25 11:18 | 40.80651 | 4.44000 | 33012 ft | 441 kts | 10° |
| 2026-04-25 11:18 | 40.83665 | 4.44729 | 33282 ft | 440 kts | 10° |
| 2026-04-25 11:19 | 40.86674 | 4.45456 | 33550 ft | 440 kts | 10° |
| 2026-04-25 11:19 | 40.89684 | 4.46181 | 33816 ft | 439 kts | 10° |
| 2026-04-25 11:19 | 40.92691 | 4.46908 | 34087 ft | 439 kts | 10° |
| 2026-04-25 11:19 | 40.95690 | 4.47636 | 34324 ft | 438 kts | 10° |
| 2026-04-25 11:20 | 40.98693 | 4.48366 | 34547 ft | 438 kts | 10° |
| 2026-04-25 11:20 | 41.01695 | 4.49094 | 34758 ft | 439 kts | 10° |
| 2026-04-25 11:20 | 41.04697 | 4.49820 | 34954 ft | 439 kts | 10° |
| 2026-04-25 11:20 | 41.07701 | 4.50546 | 35133 ft | 440 kts | 10° |
| 2026-04-25 11:21 | 41.10713 | 4.51277 | 35317 ft | 440 kts | 10° |
| 2026-04-25 11:21 | 41.13724 | 4.52009 | 35503 ft | 440 kts | 11° |
| 2026-04-25 11:21 | 41.16736 | 4.52743 | 35694 ft | 440 kts | 11° |
| 2026-04-25 11:21 | 41.19744 | 4.53479 | 35876 ft | 440 kts | 11° |
| 2026-04-25 11:22 | 41.22755 | 4.54215 | 36057 ft | 440 kts | 10° |
| 2026-04-25 11:22 | 41.24791 | 4.54711 | 36131 ft | 440 kts | 10° |
| 2026-04-25 11:22 | 41.31780 | 4.56418 | 36160 ft | 439 kts | 11° |
| 2026-04-25 11:23 | 41.37780 | 4.57888 | 36161 ft | 438 kts | 11° |
| 2026-04-25 11:23 | 41.43770 | 4.59358 | 36160 ft | 437 kts | 11° |
| 2026-04-25 11:24 | 41.49752 | 4.60836 | 36160 ft | 437 kts | 11° |
| 2026-04-25 11:24 | 41.55731 | 4.62314 | 36157 ft | 437 kts | 11° |
| 2026-04-25 11:25 | 41.61703 | 4.63797 | 36160 ft | 437 kts | 11° |
| 2026-04-25 11:25 | 41.67678 | 4.65276 | 36160 ft | 437 kts | 10° |
| 2026-04-25 11:26 | 41.73564 | 4.67227 | 36157 ft | 437 kts | 22° |
| 2026-04-25 11:26 | 41.78886 | 4.71124 | 36151 ft | 437 kts | 31° |
| 2026-04-25 11:27 | 41.84095 | 4.75330 | 36151 ft | 437 kts | 31° |
| 2026-04-25 11:27 | 41.88432 | 4.78813 | 36149 ft | 437 kts | 30° |
| 2026-04-25 11:28 | 41.94542 | 4.83719 | 36151 ft | 438 kts | 31° |
| 2026-04-25 11:28 | 41.99764 | 4.87941 | 36149 ft | 438 kts | 31° |
| 2026-04-25 11:29 | 42.04990 | 4.92175 | 36145 ft | 438 kts | 30° |
| 2026-04-25 11:29 | 42.10214 | 4.96415 | 36146 ft | 439 kts | 31° |
| 2026-04-25 11:30 | 42.15447 | 5.00657 | 36149 ft | 439 kts | 30° |
| 2026-04-25 11:30 | 42.20675 | 5.04922 | 36144 ft | 439 kts | 31° |
| 2026-04-25 11:31 | 42.25902 | 5.09199 | 36144 ft | 439 kts | 31° |
| 2026-04-25 11:31 | 42.31134 | 5.13467 | 36143 ft | 440 kts | 30° |
| 2026-04-25 11:32 | 42.36373 | 5.17745 | 36138 ft | 440 kts | 30° |
| 2026-04-25 11:32 | 42.41611 | 5.22043 | 36133 ft | 441 kts | 31° |
| 2026-04-25 11:33 | 42.46850 | 5.26363 | 36138 ft | 441 kts | 31° |
| 2026-04-25 11:33 | 42.52089 | 5.30684 | 36131 ft | 441 kts | 30° |
| 2026-04-25 11:34 | 42.57335 | 5.35019 | 36131 ft | 442 kts | 31° |
| 2026-04-25 11:34 | 42.62591 | 5.39363 | 36129 ft | 442 kts | 30° |
| 2026-04-25 11:35 | 42.67849 | 5.43713 | 36127 ft | 443 kts | 31° |
| 2026-04-25 11:35 | 42.73108 | 5.48078 | 36131 ft | 443 kts | 31° |
| 2026-04-25 11:36 | 42.78363 | 5.52457 | 36128 ft | 443 kts | 31° |
| 2026-04-25 11:36 | 42.83619 | 5.56848 | 36134 ft | 443 kts | 31° |
| 2026-04-25 11:37 | 42.88876 | 5.61243 | 36132 ft | 443 kts | 30° |
| 2026-04-25 11:37 | 42.94140 | 5.65638 | 36121 ft | 444 kts | 31° |
| 2026-04-25 11:38 | 42.99408 | 5.70057 | 36117 ft | 444 kts | 30° |
| 2026-04-25 11:38 | 43.04675 | 5.74495 | 36105 ft | 445 kts | 31° |
| 2026-04-25 11:39 | 43.09953 | 5.78943 | 36098 ft | 446 kts | 31° |
| 2026-04-25 11:39 | 43.15239 | 5.83405 | 36096 ft | 447 kts | 30° |
| 2026-04-25 11:40 | 43.20525 | 5.87882 | 36096 ft | 447 kts | 31° |
| 2026-04-25 11:40 | 43.25812 | 5.92369 | 36100 ft | 447 kts | 31° |
| 2026-04-25 11:41 | 43.31099 | 5.96858 | 36089 ft | 447 kts | 30° |
| 2026-04-25 11:41 | 43.36407 | 6.01325 | 36063 ft | 447 kts | 27° |
| 2026-04-25 11:42 | 43.42224 | 6.04149 | 36057 ft | 444 kts | 8° |
| 2026-04-25 11:42 | 43.48350 | 6.04928 | 36063 ft | 442 kts | 2° |
| 2026-04-25 11:43 | 43.54495 | 6.05546 | 36055 ft | 443 kts | 2° |
| 2026-04-25 11:43 | 43.60647 | 6.06169 | 36060 ft | 443 kts | 4° |
| 2026-04-25 11:44 | 43.66804 | 6.06795 | 36060 ft | 444 kts | 2° |
| 2026-04-25 11:44 | 43.72921 | 6.07417 | 36067 ft | 444 kts | 2° |
| 2026-04-25 11:45 | 43.78995 | 6.09221 | 36059 ft | 447 kts | 20° |
| 2026-04-25 11:45 | 43.84580 | 6.12901 | 36057 ft | 448 kts | 25° |
| 2026-04-25 11:46 | 43.90177 | 6.16717 | 36060 ft | 448 kts | 25° |
| 2026-04-25 11:46 | 43.95776 | 6.20539 | 36063 ft | 448 kts | 25° |
| 2026-04-25 11:47 | 44.01412 | 6.24389 | 36067 ft | 449 kts | 25° |
| 2026-04-25 11:47 | 44.06974 | 6.28195 | 36066 ft | 449 kts | 25° |
| 2026-04-25 11:48 | 44.12573 | 6.32047 | 36060 ft | 449 kts | 25° |
| 2026-04-25 11:48 | 44.18177 | 6.35909 | 36057 ft | 449 kts | 25° |
| 2026-04-25 11:49 | 44.23780 | 6.39782 | 36060 ft | 450 kts | 25° |
| 2026-04-25 11:49 | 44.29389 | 6.43664 | 36063 ft | 450 kts | 25° |
| 2026-04-25 11:50 | 44.35001 | 6.47549 | 36067 ft | 450 kts | 25° |
| 2026-04-25 11:50 | 44.40610 | 6.51447 | 36069 ft | 450 kts | 25° |
| 2026-04-25 11:51 | 44.46220 | 6.55357 | 36069 ft | 450 kts | 25° |
| 2026-04-25 11:51 | 44.51828 | 6.59272 | 36067 ft | 450 kts | 25° |
| 2026-04-25 11:52 | 44.57438 | 6.63189 | 36063 ft | 450 kts | 24° |
| 2026-04-25 11:52 | 44.63048 | 6.67115 | 36063 ft | 451 kts | 24° |
| 2026-04-25 11:53 | 44.68656 | 6.71053 | 36069 ft | 451 kts | 25° |
| 2026-04-25 11:53 | 44.74261 | 6.74999 | 36067 ft | 450 kts | 24° |
| 2026-04-25 11:54 | 44.80079 | 6.78107 | 36077 ft | 446 kts | 9° |
| 2026-04-25 11:54 | 44.86211 | 6.78652 | 36070 ft | 441 kts | 354° |
| 2026-04-25 11:55 | 44.89273 | 6.78445 | 36073 ft | 441 kts | 355° |
| 2026-04-25 11:55 | 44.95407 | 6.78033 | 36078 ft | 441 kts | 355° |
| 2026-04-25 11:56 | 45.01534 | 6.77630 | 36086 ft | 441 kts | 354° |
| 2026-04-25 11:56 | 45.07670 | 6.77221 | 36098 ft | 441 kts | 354° |
| 2026-04-25 11:57 | 45.13764 | 6.76806 | 36113 ft | 441 kts | 354° |
| 2026-04-25 11:57 | 45.19896 | 6.76397 | 36128 ft | 441 kts | 354° |
| 2026-04-25 11:58 | 45.26023 | 6.75995 | 36126 ft | 440 kts | 354° |
| 2026-04-25 11:58 | 45.32148 | 6.75591 | 36133 ft | 440 kts | 354° |
| 2026-04-25 11:59 | 45.38267 | 6.75184 | 36145 ft | 440 kts | 354° |
| 2026-04-25 11:59 | 45.43354 | 6.74847 | 36152 ft | 440 kts | 354° |
| 2026-04-25 12:00 | 45.52522 | 6.74217 | 36152 ft | 440 kts | 354° |
| 2026-04-25 12:01 | 45.61675 | 6.73589 | 36167 ft | 439 kts | 354° |
| 2026-04-25 12:01 | 45.67767 | 6.73176 | 36157 ft | 438 kts | 354° |
| 2026-04-25 12:02 | 45.76884 | 6.72552 | 36153 ft | 437 kts | 354° |
| 2026-04-25 12:02 | 45.82951 | 6.72132 | 36163 ft | 435 kts | 354° |
| 2026-04-25 12:03 | 45.88998 | 6.71715 | 36157 ft | 435 kts | 354° |
| 2026-04-25 12:03 | 45.95037 | 6.71328 | 36140 ft | 434 kts | 354° |
| 2026-04-25 12:04 | 46.01076 | 6.70927 | 36150 ft | 434 kts | 354° |
| 2026-04-25 12:04 | 46.07103 | 6.70501 | 36150 ft | 433 kts | 354° |
| 2026-04-25 12:05 | 46.13082 | 6.69723 | 36141 ft | 429 kts | 345° |
| 2026-04-25 12:05 | 46.18745 | 6.67167 | 36144 ft | 426 kts | 339° |
| 2026-04-25 12:06 | 46.24352 | 6.64439 | 36140 ft | 425 kts | 339° |
| 2026-04-25 12:06 | 46.29956 | 6.61719 | 36138 ft | 425 kts | 339° |
| 2026-04-25 12:07 | 46.35554 | 6.58996 | 36130 ft | 424 kts | 339° |
| 2026-04-25 12:07 | 46.41140 | 6.56265 | 36137 ft | 423 kts | 339° |
| 2026-04-25 12:08 | 46.46715 | 6.53525 | 36135 ft | 423 kts | 339° |
| 2026-04-25 12:08 | 46.52286 | 6.50792 | 36136 ft | 422 kts | 339° |
| 2026-04-25 12:09 | 46.57853 | 6.48053 | 36127 ft | 422 kts | 339° |
| 2026-04-25 12:09 | 46.63416 | 6.45301 | 36109 ft | 423 kts | 339° |
| 2026-04-25 12:10 | 46.68992 | 6.42548 | 36111 ft | 423 kts | 339° |
| 2026-04-25 12:10 | 46.74574 | 6.39794 | 36105 ft | 424 kts | 339° |
| 2026-04-25 12:11 | 46.80160 | 6.37025 | 36119 ft | 424 kts | 339° |
| 2026-04-25 12:11 | 46.85744 | 6.34242 | 36126 ft | 424 kts | 339° |
| 2026-04-25 12:12 | 46.90376 | 6.31921 | 36128 ft | 424 kts | 339° |
| 2026-04-25 12:12 | 46.96897 | 6.28666 | 36116 ft | 424 kts | 339° |
| 2026-04-25 12:13 | 47.02474 | 6.25871 | 36125 ft | 423 kts | 339° |
| 2026-04-25 12:13 | 47.07957 | 6.22780 | 36122 ft | 421 kts | 332° |
| 2026-04-25 12:14 | 47.13214 | 6.18980 | 36116 ft | 421 kts | 332° |
| 2026-04-25 12:14 | 47.18480 | 6.15178 | 36106 ft | 422 kts | 332° |
| 2026-04-25 12:15 | 47.23753 | 6.11366 | 36118 ft | 422 kts | 332° |
| 2026-04-25 12:15 | 47.29026 | 6.07548 | 36118 ft | 422 kts | 332° |
| 2026-04-25 12:16 | 47.34447 | 6.04207 | 36110 ft | 425 kts | 343° |
| 2026-04-25 12:16 | 47.40355 | 6.03391 | 36114 ft | 430 kts | 358° |
| 2026-04-25 12:17 | 47.46345 | 6.03537 | 36121 ft | 431 kts | 358° |
| 2026-04-25 12:17 | 47.52333 | 6.03671 | 36119 ft | 431 kts | 358° |
| 2026-04-25 12:18 | 47.58323 | 6.03793 | 36117 ft | 430 kts | 358° |
| 2026-04-25 12:18 | 47.64274 | 6.03922 | 36116 ft | 431 kts | 358° |
| 2026-04-25 12:19 | 47.73258 | 6.04131 | 36122 ft | 430 kts | 358° |
| 2026-04-25 12:20 | 47.79248 | 6.04290 | 36125 ft | 430 kts | 358° |
| 2026-04-25 12:20 | 47.85237 | 6.04472 | 36114 ft | 430 kts | 358° |
| 2026-04-25 12:21 | 47.91225 | 6.04669 | 36125 ft | 430 kts | 358° |
| 2026-04-25 12:21 | 47.97219 | 6.04868 | 36123 ft | 431 kts | 358° |
| 2026-04-25 12:22 | 48.03204 | 6.05046 | 36125 ft | 430 kts | 358° |
| 2026-04-25 12:22 | 48.09193 | 6.05226 | 36134 ft | 431 kts | 358° |
| 2026-04-25 12:23 | 48.15181 | 6.05411 | 36130 ft | 430 kts | 358° |
| 2026-04-25 12:23 | 48.21169 | 6.05602 | 36129 ft | 430 kts | 358° |
| 2026-04-25 12:24 | 48.27158 | 6.05789 | 36128 ft | 430 kts | 358° |
| 2026-04-25 12:24 | 48.33150 | 6.05984 | 36133 ft | 430 kts | 359° |
| 2026-04-25 12:25 | 48.39136 | 6.06245 | 36132 ft | 431 kts | 359° |
| 2026-04-25 12:25 | 48.45124 | 6.06545 | 36131 ft | 431 kts | 359° |
| 2026-04-25 12:26 | 48.51115 | 6.06848 | 36141 ft | 430 kts | 359° |
| 2026-04-25 12:26 | 48.57101 | 6.07128 | 36160 ft | 430 kts | 359° |
| 2026-04-25 12:27 | 48.63086 | 6.07393 | 36155 ft | 430 kts | 359° |
| 2026-04-25 12:27 | 48.69071 | 6.07662 | 36127 ft | 430 kts | 359° |
| 2026-04-25 12:28 | 48.75053 | 6.07939 | 36129 ft | 430 kts | 359° |
| 2026-04-25 12:28 | 48.80998 | 6.08215 | 36127 ft | 430 kts | 359° |
| 2026-04-25 12:29 | 48.86978 | 6.08500 | 36147 ft | 430 kts | 359° |
| 2026-04-25 12:29 | 48.92962 | 6.08785 | 36165 ft | 430 kts | 359° |
| 2026-04-25 12:30 | 48.98938 | 6.09050 | 36160 ft | 430 kts | 359° |
| 2026-04-25 12:30 | 49.04919 | 6.09330 | 36160 ft | 430 kts | 359° |
| 2026-04-25 12:31 | 49.10899 | 6.09609 | 36151 ft | 430 kts | 359° |
| 2026-04-25 12:31 | 49.16875 | 6.09892 | 36152 ft | 430 kts | 359° |
| 2026-04-25 12:32 | 49.22854 | 6.10189 | 36139 ft | 430 kts | 359° |
| 2026-04-25 12:32 | 49.28834 | 6.10491 | 36136 ft | 430 kts | 359° |
| 2026-04-25 12:33 | 49.34810 | 6.10804 | 36131 ft | 430 kts | 359° |
| 2026-04-25 12:33 | 49.40791 | 6.11136 | 36140 ft | 430 kts | 359° |
| 2026-04-25 12:34 | 49.46771 | 6.11454 | 36130 ft | 430 kts | 359° |
| 2026-04-25 12:34 | 49.52749 | 6.11735 | 36130 ft | 430 kts | 359° |
| 2026-04-25 12:35 | 49.58726 | 6.11956 | 36143 ft | 430 kts | 358° |
| 2026-04-25 12:35 | 49.64709 | 6.12167 | 36135 ft | 430 kts | 358° |
| 2026-04-25 12:36 | 49.70686 | 6.12388 | 36131 ft | 430 kts | 359° |
| 2026-04-25 12:36 | 49.73688 | 6.12508 | 35394 ft | 435 kts | 359° |
| 2026-04-25 12:36 | 49.76746 | 6.12628 | 34297 ft | 443 kts | 359° |
| 2026-04-25 12:36 | 49.79838 | 6.12745 | 33324 ft | 445 kts | 359° |
| 2026-04-25 12:37 | 49.82926 | 6.12860 | 32608 ft | 441 kts | 358° |
| 2026-04-25 12:37 | 49.85959 | 6.12983 | 32085 ft | 433 kts | 358° |
| 2026-04-25 12:37 | 49.88952 | 6.13078 | 31468 ft | 428 kts | 358° |
| 2026-04-25 12:37 | 49.91910 | 6.13111 | 30872 ft | 423 kts | 357° |
| 2026-04-25 12:38 | 49.94835 | 6.13105 | 30283 ft | 418 kts | 356° |
| 2026-04-25 12:38 | 49.97725 | 6.13084 | 29644 ft | 413 kts | 356° |
| 2026-04-25 12:38 | 50.00578 | 6.13068 | 29088 ft | 407 kts | 356° |
| 2026-04-25 12:38 | 50.03389 | 6.13063 | 28539 ft | 401 kts | 357° |
| 2026-04-25 12:39 | 50.06165 | 6.13071 | 27978 ft | 397 kts | 357° |
| 2026-04-25 12:39 | 50.08912 | 6.13088 | 27439 ft | 393 kts | 357° |
| 2026-04-25 12:39 | 50.11630 | 6.13107 | 26905 ft | 388 kts | 357° |
| 2026-04-25 12:39 | 50.14321 | 6.13124 | 26387 ft | 384 kts | 357° |
| 2026-04-25 12:40 | 50.16982 | 6.13142 | 25882 ft | 381 kts | 357° |
| 2026-04-25 12:40 | 50.19630 | 6.13374 | 25094 ft | 388 kts | 8° |
| 2026-04-25 12:40 | 50.22210 | 6.14824 | 24107 ft | 405 kts | 26° |
| 2026-04-25 12:40 | 50.24400 | 6.17675 | 23339 ft | 416 kts | 47° |
| 2026-04-25 12:41 | 50.25969 | 6.21449 | 22707 ft | 410 kts | 56° |
| 2026-04-25 12:41 | 50.27399 | 6.25272 | 21667 ft | 405 kts | 57° |
| 2026-04-25 12:41 | 50.28797 | 6.29062 | 20708 ft | 399 kts | 58° |
| 2026-04-25 12:41 | 50.30167 | 6.32808 | 19811 ft | 393 kts | 58° |
| 2026-04-25 12:42 | 50.31513 | 6.36492 | 18950 ft | 387 kts | 58° |
| 2026-04-25 12:42 | 50.31946 | 6.37676 | 18667 ft | 386 kts | 58° |
| 2026-04-25 12:42 | 50.34153 | 6.43704 | 17078 ft | 377 kts | 58° |
| 2026-04-25 12:42 | 50.35446 | 6.47239 | 16341 ft | 371 kts | 58° |
| 2026-04-25 12:43 | 50.36724 | 6.50728 | 15885 ft | 368 kts | 58° |
| 2026-04-25 12:43 | 50.37566 | 6.53026 | 15582 ft | 366 kts | 57° |
| 2026-04-25 12:43 | 50.40487 | 6.61020 | 14521 ft | 361 kts | 57° |
| 2026-04-25 12:44 | 50.41729 | 6.64437 | 14070 ft | 360 kts | 58° |
| 2026-04-25 12:44 | 50.42966 | 6.67843 | 13580 ft | 358 kts | 57° |
| 2026-04-25 12:44 | 50.45014 | 6.73493 | 12798 ft | 354 kts | 58° |
| 2026-04-25 12:45 | 50.46222 | 6.76831 | 12333 ft | 350 kts | 58° |
| 2026-04-25 12:45 | 50.47420 | 6.80146 | 11868 ft | 348 kts | 58° |
| 2026-04-25 12:45 | 50.49765 | 6.86654 | 11222 ft | 334 kts | 58° |
| 2026-04-25 12:46 | 50.50893 | 6.89788 | 10972 ft | 326 kts | 58° |
| 2026-04-25 12:46 | 50.51998 | 6.92862 | 10646 ft | 321 kts | 58° |
| 2026-04-25 12:46 | 50.53090 | 6.95898 | 10280 ft | 318 kts | 58° |
| 2026-04-25 12:46 | 50.54175 | 6.98913 | 9915 ft | 315 kts | 58° |
| 2026-04-25 12:47 | 50.55251 | 7.01911 | 9525 ft | 313 kts | 58° |
| 2026-04-25 12:47 | 50.56315 | 7.04886 | 9135 ft | 311 kts | 58° |
| 2026-04-25 12:47 | 50.57371 | 7.07846 | 8743 ft | 309 kts | 58° |
| 2026-04-25 12:47 | 50.58417 | 7.10774 | 8360 ft | 306 kts | 58° |
| 2026-04-25 12:48 | 50.59445 | 7.13688 | 7979 ft | 303 kts | 58° |
| 2026-04-25 12:48 | 50.60456 | 7.16575 | 7600 ft | 300 kts | 59° |
| 2026-04-25 12:48 | 50.61457 | 7.19440 | 7233 ft | 297 kts | 58° |
| 2026-04-25 12:48 | 50.62450 | 7.22271 | 6870 ft | 294 kts | 58° |
| 2026-04-25 12:49 | 50.63429 | 7.25077 | 6499 ft | 291 kts | 59° |
| 2026-04-25 12:49 | 50.64398 | 7.27855 | 6113 ft | 288 kts | 58° |
| 2026-04-25 12:49 | 50.65357 | 7.30599 | 5736 ft | 285 kts | 58° |
| 2026-04-25 12:49 | 50.66309 | 7.33332 | 5354 ft | 283 kts | 58° |
| 2026-04-25 12:50 | 50.67255 | 7.36043 | 4981 ft | 281 kts | 58° |
| 2026-04-25 12:50 | 50.68472 | 7.38368 | 4595 ft | 272 kts | 31° |
| 2026-04-25 12:50 | 50.70190 | 7.39212 | 4319 ft | 253 kts | 356° |
| 2026-04-25 12:50 | 50.71782 | 7.38474 | 4055 ft | 231 kts | 325° |
| 2026-04-25 12:51 | 50.72804 | 7.36649 | 3804 ft | 218 kts | 299° |
| 2026-04-25 12:51 | 50.73426 | 7.34525 | 3522 ft | 211 kts | 296° |
| 2026-04-25 12:51 | 50.74262 | 7.32720 | 3206 ft | 200 kts | 320° |
| 2026-04-25 12:51 | 50.75271 | 7.31322 | 3070 ft | 187 kts | 319° |
| 2026-04-25 12:52 | 50.76206 | 7.29995 | 2838 ft | 175 kts | 318° |
| 2026-04-25 12:52 | 50.77088 | 7.28730 | 2601 ft | 168 kts | 318° |
| 2026-04-25 12:52 | 50.77956 | 7.27480 | 2389 ft | 168 kts | 318° |
| 2026-04-25 12:52 | 50.78815 | 7.26246 | 2155 ft | 166 kts | 316° |
| 2026-04-25 12:53 | 50.79668 | 7.25015 | 1932 ft | 166 kts | 317° |
| 2026-04-25 12:53 | 50.80514 | 7.23797 | 1700 ft | 160 kts | 317° |
| 2026-04-25 12:53 | 50.81292 | 7.22676 | 1497 ft | 144 kts | 316° |
| 2026-04-25 12:53 | 50.82005 | 7.21647 | 1301 ft | 135 kts | 315° |
| 2026-04-25 12:54 | 50.82699 | 7.20645 | 1101 ft | 135 kts | 315° |
| 2026-04-25 12:54 | 50.83402 | 7.19629 | 910 ft | 140 kts | 316° |
| 2026-04-25 12:54 | 50.84122 | 7.18589 | 726 ft | 140 kts | 316° |
| 2026-04-25 12:54 | 50.84837 | 7.17563 | 542 ft | 138 kts | 315° |
| 2026-04-25 12:55 | 50.85539 | 7.16541 | 361 ft | 137 kts | 315° |
| 2026-04-25 12:55 | 50.85972 | 7.15901 | 299 ft | 101 kts | 316° |
| 2026-04-25 12:55 | 50.86513 | 7.15113 | 279 ft | 69 kts | 317° |
| 2026-04-25 12:55 | 50.86834 | 7.14649 | 264 ft | 58 kts | 317° |
| 2026-04-25 12:56 | 50.87124 | 7.14242 | 250 ft | 53 kts | 319° |
| 2026-04-25 12:56 | 50.87389 | 7.13857 | 241 ft | 50 kts | 317° |
| 2026-04-25 12:56 | 50.87633 | 7.13503 | 239 ft | 46 kts | 318° |
| 2026-04-25 12:56 | 50.87825 | 7.13223 | 239 ft | 22 kts | 316° |
| 2026-04-25 12:57 | 50.87831 | 7.13024 | 238 ft | 20 kts | 257° |
| 2026-04-25 12:57 | 50.87797 | 7.12812 | 232 ft | 14 kts | 256° |
| 2026-04-25 12:57 | 50.87782 | 7.12720 | 232 ft | 8 kts | 255° |
| 2026-04-25 12:57 | 50.87769 | 7.12640 | 232 ft | 7 kts | 259° |
| 2026-04-25 12:58 | 50.87770 | 7.12572 | 232 ft | 6 kts | 283° |
| 2026-04-25 12:58 | 50.87786 | 7.12501 | 232 ft | 8 kts | 288° |
| 2026-04-25 12:58 | 50.87802 | 7.12426 | 232 ft | 3 kts | 288° |
| 2026-04-25 12:58 | 50.87803 | 7.12421 | 232 ft | 0 kts | 288° |